createdAt,value
2022-12-01T00:00:48.749Z,1020.24
2022-12-01T00:01:49.104Z,1020.23
2022-12-01T00:02:49.228Z,1020.22
2022-12-01T00:03:49.138Z,1020.26
2022-12-01T00:04:49.256Z,1020.23
2022-12-01T00:05:49.380Z,1020.26
2022-12-01T00:06:49.563Z,1020.27
2022-12-01T00:07:49.767Z,1020.27
2022-12-01T00:08:49.829Z,1020.26
2022-12-01T00:09:50.138Z,1020.24
2022-12-01T00:10:50.147Z,1020.26
2022-12-01T00:11:50.278Z,1020.28
2022-12-01T00:12:50.406Z,1020.26
2022-12-01T00:13:50.558Z,1020.24
2022-12-01T00:14:50.681Z,1020.29
2022-12-01T00:15:50.805Z,1020.20
2022-12-01T00:16:51.114Z,1020.25
2022-12-01T00:17:51.099Z,1020.28
2022-12-01T00:18:51.268Z,1020.25
2022-12-01T00:19:51.418Z,1020.19
2022-12-01T00:20:51.586Z,1020.21
2022-12-01T00:21:51.728Z,1020.17
2022-12-01T00:22:51.855Z,1020.25
2022-12-01T00:23:51.994Z,1020.22
2022-12-01T00:24:52.175Z,1020.25
2022-12-01T00:25:52.296Z,1020.17
2022-12-01T00:26:52.428Z,1020.28
2022-12-01T00:27:52.568Z,1020.26
2022-12-01T00:28:52.723Z,1020.23
2022-12-01T00:29:52.847Z,1020.20
2022-12-01T00:30:52.996Z,1020.16
2022-12-01T00:31:53.187Z,1020.25
2022-12-01T00:32:53.264Z,1020.17
2022-12-01T00:33:53.414Z,1020.21
2022-12-01T00:34:53.537Z,1020.21
2022-12-01T00:35:53.657Z,1020.23
2022-12-01T00:36:53.784Z,1020.20
2022-12-01T00:37:53.923Z,1020.19
2022-12-01T00:38:54.055Z,1020.18
2022-12-01T00:39:54.176Z,1020.19
2022-12-01T00:40:54.316Z,1020.16
2022-12-01T00:41:54.455Z,1020.19
2022-12-01T00:42:54.584Z,1020.18
2022-12-01T00:43:54.745Z,1020.21
2022-12-01T00:44:54.876Z,1020.23
2022-12-01T00:45:55.020Z,1020.23
2022-12-01T00:46:55.182Z,1020.22
2022-12-01T00:47:55.314Z,1020.23
2022-12-01T00:48:55.466Z,1020.21
2022-12-01T00:49:55.573Z,1020.23
2022-12-01T00:50:55.709Z,1020.20
2022-12-01T00:51:55.854Z,1020.24
2022-12-01T00:52:55.974Z,1020.19
2022-12-01T00:53:56.200Z,1020.16
2022-12-01T00:54:56.234Z,1020.19
2022-12-01T00:55:56.415Z,1020.26
2022-12-01T00:56:56.547Z,1020.23
2022-12-01T00:57:56.670Z,1020.29
2022-12-01T00:58:56.783Z,1020.25
2022-12-01T00:59:56.902Z,1020.26
2022-12-01T01:00:57.161Z,1020.24
2022-12-01T01:01:57.237Z,1020.24
2022-12-01T01:02:57.284Z,1020.31
2022-12-01T01:03:57.391Z,1020.25
2022-12-01T01:04:57.532Z,1020.25
2022-12-01T01:05:57.671Z,1020.25
2022-12-01T01:06:57.790Z,1020.28
2022-12-01T01:07:58.045Z,1020.31
2022-12-01T01:08:58.075Z,1020.31
2022-12-01T01:09:58.200Z,1020.34
2022-12-01T01:10:58.347Z,1020.32
2022-12-01T01:11:58.440Z,1020.31
2022-12-01T01:12:58.572Z,1020.28
2022-12-01T01:13:58.739Z,1020.32
2022-12-01T01:14:58.895Z,1020.30
2022-12-01T01:15:59.040Z,1020.32
2022-12-01T01:16:59.256Z,1020.34
2022-12-01T01:17:59.332Z,1020.38
2022-12-01T01:18:59.448Z,1020.31
2022-12-01T01:19:59.569Z,1020.40
2022-12-01T01:20:59.722Z,1020.32
2022-12-01T01:21:59.860Z,1020.35
2022-12-01T01:23:00.000Z,1020.36
2022-12-01T01:24:00.144Z,1020.31
2022-12-01T01:25:00.261Z,1020.33
2022-12-01T01:26:00.388Z,1020.30
2022-12-01T01:27:00.531Z,1020.33
2022-12-01T01:28:00.672Z,1020.32
2022-12-01T01:29:00.801Z,1020.34
2022-12-01T01:30:00.956Z,1020.30
2022-12-01T01:31:01.112Z,1020.37
2022-12-01T01:32:01.237Z,1020.37
2022-12-01T01:33:01.420Z,1020.37
2022-12-01T01:34:01.498Z,1020.39
2022-12-01T01:35:01.632Z,1020.40
2022-12-01T01:36:01.748Z,1020.39
2022-12-01T01:37:01.865Z,1020.40
2022-12-01T01:38:01.998Z,1020.40
2022-12-01T01:39:02.139Z,1020.45
2022-12-01T01:40:02.259Z,1020.39
2022-12-01T01:41:02.420Z,1020.40
2022-12-01T01:42:02.547Z,1020.48
2022-12-01T01:43:02.708Z,1020.43
2022-12-01T01:44:02.854Z,1020.38
2022-12-01T01:45:02.977Z,1020.48
2022-12-01T01:46:04.632Z,1020.49
2022-12-01T01:47:03.278Z,1020.43
2022-12-01T01:48:03.405Z,1020.51
2022-12-01T01:49:03.550Z,1020.52
2022-12-01T01:50:03.649Z,1020.48
2022-12-01T01:51:03.776Z,1020.52
2022-12-01T01:52:03.929Z,1020.51
2022-12-01T01:53:04.070Z,1020.51
2022-12-01T01:54:04.216Z,1020.52
2022-12-01T01:55:04.369Z,1020.50
2022-12-01T01:56:04.518Z,1020.52
2022-12-01T01:57:04.723Z,1020.47
2022-12-01T01:58:04.815Z,1020.46
2022-12-01T01:59:05.064Z,1020.49
2022-12-01T02:00:05.115Z,1020.48
2022-12-01T02:01:05.345Z,1020.48
2022-12-01T02:02:05.460Z,1020.49
2022-12-01T02:03:05.556Z,1020.44
2022-12-01T02:04:05.707Z,1020.49
2022-12-01T02:05:05.954Z,1020.49
2022-12-01T02:06:05.986Z,1020.44
2022-12-01T02:07:06.111Z,1020.44
2022-12-01T02:08:06.270Z,1020.52
2022-12-01T02:09:06.407Z,1020.46
2022-12-01T02:10:06.565Z,1020.40
2022-12-01T02:11:06.683Z,1020.45
2022-12-01T02:12:06.796Z,1020.49
2022-12-01T02:13:06.933Z,1020.41
2022-12-01T02:14:07.073Z,1020.43
2022-12-01T02:15:07.210Z,1020.46
2022-12-01T02:16:07.354Z,1020.43
2022-12-01T02:17:07.526Z,1020.46
2022-12-01T02:18:07.626Z,1020.46
2022-12-01T02:19:07.752Z,1020.44
2022-12-01T02:20:07.910Z,1020.46
2022-12-01T02:21:08.042Z,1020.46
2022-12-01T02:22:08.174Z,1020.45
2022-12-01T02:23:08.328Z,1020.43
2022-12-01T02:24:08.469Z,1020.45
2022-12-01T02:25:08.626Z,1020.45
2022-12-01T02:26:08.776Z,1020.45
2022-12-01T02:27:08.903Z,1020.38
2022-12-01T02:28:09.054Z,1020.46
2022-12-01T02:29:09.183Z,1020.47
2022-12-01T02:30:09.299Z,1020.43
2022-12-01T02:31:09.546Z,1020.45
2022-12-01T02:32:09.623Z,1020.46
2022-12-01T02:33:09.744Z,1020.41
2022-12-01T02:34:09.851Z,1020.42
2022-12-01T02:35:10.005Z,1020.43
2022-12-01T02:36:10.086Z,1020.42
2022-12-01T02:37:10.202Z,1020.41
2022-12-01T02:38:10.321Z,1020.44
2022-12-01T02:39:10.497Z,1020.40
2022-12-01T02:40:10.554Z,1020.36
2022-12-01T02:41:10.712Z,1020.34
2022-12-01T02:42:10.820Z,1020.38
2022-12-01T02:43:10.993Z,1020.34
2022-12-01T02:44:11.050Z,1020.31
2022-12-01T02:45:11.218Z,1020.36
2022-12-01T02:46:11.393Z,1020.31
2022-12-01T02:47:11.460Z,1020.34
2022-12-01T02:48:11.618Z,1020.40
2022-12-01T02:49:11.731Z,1020.36
2022-12-01T02:50:11.860Z,1020.33
2022-12-01T02:51:12.020Z,1020.35
2022-12-01T02:52:12.168Z,1020.33
2022-12-01T02:53:12.287Z,1020.36
2022-12-01T02:54:12.409Z,1020.35
2022-12-01T02:55:12.549Z,1020.43
2022-12-01T02:56:12.700Z,1020.35
2022-12-01T02:57:12.838Z,1020.36
2022-12-01T02:58:12.990Z,1020.35
2022-12-01T02:59:13.124Z,1020.39
2022-12-01T03:00:13.230Z,1020.37
2022-12-01T03:01:13.363Z,1020.35
2022-12-01T03:02:13.515Z,1020.38
2022-12-01T03:03:13.599Z,1020.40
2022-12-01T03:04:13.725Z,1020.36
2022-12-01T03:05:13.928Z,1020.44
2022-12-01T03:06:13.978Z,1020.37
2022-12-01T03:07:14.119Z,1020.40
2022-12-01T03:08:14.266Z,1020.43
2022-12-01T03:09:14.390Z,1020.43
2022-12-01T03:10:14.504Z,1020.46
2022-12-01T03:11:14.614Z,1020.46
2022-12-01T03:12:14.761Z,1020.46
2022-12-01T03:13:14.887Z,1020.44
2022-12-01T03:14:14.998Z,1020.46
2022-12-01T03:15:15.106Z,1020.44
2022-12-01T03:16:15.345Z,1020.40
2022-12-01T03:17:15.427Z,1020.47
2022-12-01T03:18:15.515Z,1020.40
2022-12-01T03:19:15.667Z,1020.39
2022-12-01T03:20:15.755Z,1020.42
2022-12-01T03:21:15.875Z,1020.45
2022-12-01T03:22:16.014Z,1020.39
2022-12-01T03:23:16.161Z,1020.42
2022-12-01T03:24:16.307Z,1020.42
2022-12-01T03:25:16.428Z,1020.38
2022-12-01T03:26:16.559Z,1020.31
2022-12-01T03:27:16.674Z,1020.40
2022-12-01T03:28:21.517Z,1020.31
2022-12-01T03:29:17.905Z,1020.35
2022-12-01T03:30:17.045Z,1020.31
2022-12-01T03:31:17.283Z,1020.35
2022-12-01T03:32:17.317Z,1020.38
2022-12-01T03:33:17.444Z,1020.30
2022-12-01T03:34:17.563Z,1020.35
2022-12-01T03:35:17.665Z,1020.37
2022-12-01T03:36:17.857Z,1020.34
2022-12-01T03:37:18.007Z,1020.40
2022-12-01T03:38:18.177Z,1020.39
2022-12-01T03:39:18.283Z,1020.37
2022-12-01T03:40:18.416Z,1020.36
2022-12-01T03:41:18.587Z,1020.38
2022-12-01T03:42:18.761Z,1020.37
2022-12-01T03:43:18.985Z,1020.38
2022-12-01T03:44:19.104Z,1020.41
2022-12-01T03:45:19.133Z,1020.42
2022-12-01T03:46:19.346Z,1020.42
2022-12-01T03:47:19.382Z,1020.35
2022-12-01T03:48:19.565Z,1020.37
2022-12-01T03:49:19.706Z,1020.40
2022-12-01T03:50:19.866Z,1020.38
2022-12-01T03:51:20.049Z,1020.33
2022-12-01T03:52:20.165Z,1020.37
2022-12-01T03:53:20.292Z,1020.44
2022-12-01T03:54:20.434Z,1020.45
2022-12-01T03:55:20.539Z,1020.41
2022-12-01T03:56:20.673Z,1020.43
2022-12-01T03:57:20.794Z,1020.46
2022-12-01T03:58:20.943Z,1020.48
2022-12-01T03:59:21.103Z,1020.47
2022-12-01T04:00:21.275Z,1020.42
2022-12-01T04:01:21.486Z,1020.48
2022-12-01T04:02:21.626Z,1020.45
2022-12-01T04:03:21.691Z,1020.45
2022-12-01T04:04:21.832Z,1020.43
2022-12-01T04:05:25.339Z,1020.46
2022-12-01T04:06:22.161Z,1020.55
2022-12-01T04:07:22.300Z,1020.49
2022-12-01T04:08:22.411Z,1020.42
2022-12-01T04:09:22.558Z,1020.49
2022-12-01T04:10:22.735Z,1020.48
2022-12-01T04:11:22.873Z,1020.54
2022-12-01T04:12:23.021Z,1020.50
2022-12-01T04:13:23.130Z,1020.54
2022-12-01T04:14:23.246Z,1020.53
2022-12-01T04:15:23.386Z,1020.50
2022-12-01T04:16:23.611Z,1020.49
2022-12-01T04:17:23.689Z,1020.58
2022-12-01T04:18:23.828Z,1020.43
2022-12-01T04:19:23.931Z,1020.55
2022-12-01T04:20:24.060Z,1020.46
2022-12-01T04:21:24.209Z,1020.46
2022-12-01T04:22:24.360Z,1020.51
2022-12-01T04:23:24.510Z,1020.54
2022-12-01T04:24:24.669Z,1020.59
2022-12-01T04:25:24.791Z,1020.49
2022-12-01T04:26:24.937Z,1020.49
2022-12-01T04:27:25.088Z,1020.52
2022-12-01T04:28:25.247Z,1020.57
2022-12-01T04:29:25.383Z,1020.52
2022-12-01T04:30:25.509Z,1020.49
2022-12-01T04:31:25.703Z,1020.48
2022-12-01T04:32:25.831Z,1020.64
2022-12-01T04:33:26.035Z,1020.54
2022-12-01T04:34:26.147Z,1020.51
2022-12-01T04:35:26.273Z,1020.51
2022-12-01T04:36:26.418Z,1020.47
2022-12-01T04:37:26.546Z,1020.52
2022-12-01T04:38:30.499Z,1020.49
2022-12-01T04:39:26.797Z,1020.48
2022-12-01T04:40:26.955Z,1020.47
2022-12-01T04:41:27.107Z,1020.45
2022-12-01T04:42:27.240Z,1020.49
2022-12-01T04:43:27.406Z,1020.47
2022-12-01T04:44:33.014Z,1020.46
2022-12-01T04:45:28.714Z,1020.50
2022-12-01T04:46:27.868Z,1020.42
2022-12-01T04:47:28.026Z,1020.44
2022-12-01T04:48:28.159Z,1020.45
2022-12-01T04:49:28.334Z,1020.46
2022-12-01T04:50:28.463Z,1020.49
2022-12-01T04:51:28.604Z,1020.45
2022-12-01T04:52:34.871Z,1020.42
2022-12-01T04:53:29.915Z,1020.46
2022-12-01T04:54:29.080Z,1020.43
2022-12-01T04:55:29.219Z,1020.45
2022-12-01T04:56:29.373Z,1020.47
2022-12-01T04:57:29.536Z,1020.45
2022-12-01T04:58:29.744Z,1020.45
2022-12-01T04:59:29.856Z,1020.44
2022-12-01T05:00:29.993Z,1020.39
2022-12-01T05:01:30.045Z,1020.37
2022-12-01T05:02:30.311Z,1020.42
2022-12-01T05:03:30.354Z,1020.41
2022-12-01T05:04:30.493Z,1020.38
2022-12-01T05:05:30.653Z,1020.33
2022-12-01T05:06:30.835Z,1020.43
2022-12-01T05:07:31.000Z,1020.39
2022-12-01T05:08:31.085Z,1020.40
2022-12-01T05:09:31.225Z,1020.40
2022-12-01T05:10:31.385Z,1020.38
2022-12-01T05:11:31.525Z,1020.44
2022-12-01T05:12:31.681Z,1020.43
2022-12-01T05:13:31.834Z,1020.41
2022-12-01T05:14:31.969Z,1020.46
2022-12-01T05:15:32.103Z,1020.43
2022-12-01T05:16:32.310Z,1020.48
2022-12-01T05:17:36.740Z,1020.43
2022-12-01T05:18:32.543Z,1020.43
2022-12-01T05:19:32.592Z,1020.49
2022-12-01T05:20:32.724Z,1020.40
2022-12-01T05:21:32.950Z,1020.43
2022-12-01T05:23:03.798Z,1020.41
2022-12-01T05:23:34.156Z,1020.45
2022-12-01T05:24:33.263Z,1020.40
2022-12-01T05:25:33.388Z,1020.50
2022-12-01T05:26:33.532Z,1020.51
2022-12-01T05:27:33.700Z,1020.49
2022-12-01T05:28:33.853Z,1020.46
2022-12-01T05:29:33.980Z,1020.49
2022-12-01T05:30:34.117Z,1020.49
2022-12-01T05:31:34.385Z,1020.48
2022-12-01T05:32:34.455Z,1020.50
2022-12-01T05:33:34.651Z,1020.51
2022-12-01T05:34:34.754Z,1020.49
2022-12-01T05:35:35.641Z,1020.51
2022-12-01T05:36:35.080Z,1020.50
2022-12-01T05:37:35.276Z,1020.55
2022-12-01T05:38:35.342Z,1020.52
2022-12-01T05:39:35.474Z,1020.50
2022-12-01T05:40:35.604Z,1020.57
2022-12-01T05:41:35.726Z,1020.55
2022-12-01T05:42:35.869Z,1020.54
2022-12-01T05:43:36.009Z,1020.57
2022-12-01T05:44:36.981Z,1020.60
2022-12-01T05:45:36.378Z,1020.55
2022-12-01T05:46:36.492Z,1020.59
2022-12-01T05:47:36.639Z,1020.59
2022-12-01T05:48:36.791Z,1020.59
2022-12-01T05:49:36.943Z,1020.58
2022-12-01T05:50:37.097Z,1020.53
2022-12-01T05:51:37.229Z,1020.57
2022-12-01T05:52:37.379Z,1020.52
2022-12-01T05:53:37.540Z,1020.55
2022-12-01T05:54:37.677Z,1020.58
2022-12-01T05:55:38.565Z,1020.63
2022-12-01T05:56:38.027Z,1020.57
2022-12-01T05:57:38.361Z,1020.59
2022-12-01T05:58:38.250Z,1020.59
2022-12-01T05:59:38.387Z,1020.59
2022-12-01T06:00:45.032Z,1020.59
2022-12-01T06:01:39.644Z,1020.64
2022-12-01T06:02:38.786Z,1020.63
2022-12-01T06:03:39.135Z,1020.62
2022-12-01T06:04:39.116Z,1020.65
2022-12-01T06:05:39.301Z,1020.66
2022-12-01T06:06:39.447Z,1020.67
2022-12-01T06:07:39.606Z,1020.64
2022-12-01T06:08:39.719Z,1020.65
2022-12-01T06:09:39.889Z,1020.65
2022-12-01T06:10:40.037Z,1020.63
2022-12-01T06:11:40.507Z,1020.62
2022-12-01T06:12:40.338Z,1020.65
2022-12-01T06:13:40.483Z,1020.64
2022-12-01T06:14:40.651Z,1020.61
2022-12-01T06:15:40.736Z,1020.63
2022-12-01T06:16:40.956Z,1020.61
2022-12-01T06:17:41.026Z,1020.63
2022-12-01T06:18:41.165Z,1020.65
2022-12-01T06:19:41.244Z,1020.63
2022-12-01T06:20:41.416Z,1020.70
2022-12-01T06:21:41.540Z,1020.64
2022-12-01T06:22:41.673Z,1020.67
2022-12-01T06:23:41.839Z,1020.62
2022-12-01T06:24:42.008Z,1020.66
2022-12-01T06:25:42.105Z,1020.65
2022-12-01T06:26:42.234Z,1020.63
2022-12-01T06:27:42.378Z,1020.70
2022-12-01T06:28:42.505Z,1020.70
2022-12-01T06:29:42.633Z,1020.73
2022-12-01T06:30:42.805Z,1020.69
2022-12-01T06:31:42.992Z,1020.76
2022-12-01T06:32:43.088Z,1020.72
2022-12-01T06:33:43.195Z,1020.70
2022-12-01T06:34:43.375Z,1020.77
2022-12-01T06:35:43.443Z,1020.79
2022-12-01T06:36:43.603Z,1020.79
2022-12-01T06:37:43.724Z,1020.80
2022-12-01T06:38:43.873Z,1020.77
2022-12-01T06:39:44.752Z,1020.77
2022-12-01T06:40:44.203Z,1020.82
2022-12-01T06:41:44.354Z,1020.74
2022-12-01T06:42:44.537Z,1020.79
2022-12-01T06:43:44.664Z,1020.73
2022-12-01T06:44:44.864Z,1020.70
2022-12-01T06:45:44.995Z,1020.77
2022-12-01T06:46:45.392Z,1020.75
2022-12-01T06:47:46.704Z,1020.73
2022-12-01T06:48:45.543Z,1020.78
2022-12-01T06:49:46.340Z,1020.83
2022-12-01T06:50:46.392Z,1020.80
2022-12-01T06:51:46.542Z,1020.76
2022-12-01T06:52:46.733Z,1020.84
2022-12-01T06:53:46.133Z,1020.79
2022-12-01T06:54:46.996Z,1020.74
2022-12-01T06:55:46.382Z,1020.79
2022-12-01T06:56:47.261Z,1020.79
2022-12-01T06:57:46.722Z,1020.79
2022-12-01T06:58:47.532Z,1020.76
2022-12-01T06:59:47.489Z,1020.78
2022-12-01T07:00:51.877Z,1020.83
2022-12-01T07:01:48.345Z,1020.83
2022-12-01T07:02:48.314Z,1020.81
2022-12-01T07:03:47.452Z,1020.83
2022-12-01T07:04:47.882Z,1020.91
2022-12-01T07:05:47.692Z,1020.83
2022-12-01T07:06:47.849Z,1020.82
2022-12-01T07:07:47.995Z,1020.81
2022-12-01T07:08:48.130Z,1020.87
2022-12-01T07:09:48.612Z,1020.87
2022-12-01T07:10:48.437Z,1020.86
2022-12-01T07:11:48.603Z,1020.89
2022-12-01T07:12:48.787Z,1020.85
2022-12-01T07:13:48.931Z,1020.86
2022-12-01T07:14:49.110Z,1020.90
2022-12-01T07:15:49.260Z,1020.93
2022-12-01T07:16:49.447Z,1020.85
2022-12-01T07:17:49.480Z,1020.96
2022-12-01T07:18:49.632Z,1020.91
2022-12-01T07:19:50.080Z,1020.94
2022-12-01T07:20:49.905Z,1020.90
2022-12-01T07:21:50.008Z,1020.99
2022-12-01T07:22:50.106Z,1020.92
2022-12-01T07:23:50.335Z,1020.95
2022-12-01T07:24:50.428Z,1020.96
2022-12-01T07:25:50.569Z,1020.93
2022-12-01T07:26:50.719Z,1020.98
2022-12-01T07:27:50.847Z,1020.95
2022-12-01T07:28:50.981Z,1020.98
2022-12-01T07:29:51.484Z,1021.00
2022-12-01T07:30:51.313Z,1020.96
2022-12-01T07:31:51.387Z,1020.93
2022-12-01T07:32:51.509Z,1020.98
2022-12-01T07:33:51.670Z,1020.92
2022-12-01T07:34:51.788Z,1020.92
2022-12-01T07:35:51.907Z,1020.91
2022-12-01T07:36:52.039Z,1020.92
2022-12-01T07:37:52.169Z,1020.89
2022-12-01T07:38:52.295Z,1020.91
2022-12-01T07:39:52.438Z,1020.89
2022-12-01T07:40:52.585Z,1020.92
2022-12-01T07:41:52.717Z,1020.95
2022-12-01T07:42:52.878Z,1020.97
2022-12-01T07:43:53.026Z,1020.98
2022-12-01T07:44:53.158Z,1021.03
2022-12-01T07:45:53.312Z,1021.08
2022-12-01T07:46:54.164Z,1021.06
2022-12-01T07:47:53.604Z,1021.05
2022-12-01T07:48:53.748Z,1021.00
2022-12-01T07:49:53.907Z,1021.02
2022-12-01T07:50:54.025Z,1021.07
2022-12-01T07:51:54.153Z,1021.03
2022-12-01T07:52:54.274Z,1021.06
2022-12-01T07:53:54.421Z,1021.11
2022-12-01T07:54:54.566Z,1021.16
2022-12-01T07:55:54.954Z,1021.13
2022-12-01T07:56:54.817Z,1021.12
2022-12-01T07:57:54.941Z,1021.18
2022-12-01T07:58:56.026Z,1021.15
2022-12-01T07:59:55.267Z,1021.04
2022-12-01T08:00:55.415Z,1021.14
2022-12-01T08:01:55.727Z,1021.17
2022-12-01T08:02:55.732Z,1021.12
2022-12-01T08:03:55.890Z,1021.15
2022-12-01T08:04:56.023Z,1021.18
2022-12-01T08:05:56.196Z,1021.21
2022-12-01T08:06:56.311Z,1021.16
2022-12-01T08:07:56.581Z,1021.17
2022-12-01T08:08:56.584Z,1021.12
2022-12-01T08:09:56.675Z,1021.12
2022-12-01T08:10:56.805Z,1021.17
2022-12-01T08:11:56.953Z,1021.18
2022-12-01T08:12:57.135Z,1021.14
2022-12-01T08:13:57.270Z,1021.14
2022-12-01T08:14:57.513Z,1021.15
2022-12-01T08:15:57.627Z,1021.18
2022-12-01T08:16:57.663Z,1021.16
2022-12-01T08:17:57.811Z,1021.14
2022-12-01T08:18:57.953Z,1021.15
2022-12-01T08:19:58.092Z,1021.19
2022-12-01T08:20:58.263Z,1021.17
2022-12-01T08:21:58.419Z,1021.24
2022-12-01T08:22:58.597Z,1021.24
2022-12-01T08:23:58.685Z,1021.31
2022-12-01T08:24:58.779Z,1021.27
2022-12-01T08:25:58.973Z,1021.28
2022-12-01T08:26:59.102Z,1021.30
2022-12-01T08:27:59.242Z,1021.31
2022-12-01T08:28:59.421Z,1021.29
2022-12-01T08:29:59.582Z,1021.26
2022-12-01T08:30:59.757Z,1021.33
2022-12-01T08:31:59.840Z,1021.30
2022-12-01T08:33:00.283Z,1021.35
2022-12-01T08:34:00.166Z,1021.37
2022-12-01T08:35:00.320Z,1021.39
2022-12-01T08:36:00.468Z,1021.42
2022-12-01T08:37:00.630Z,1021.36
2022-12-01T08:38:00.848Z,1021.41
2022-12-01T08:39:00.937Z,1021.44
2022-12-01T08:40:01.089Z,1021.40
2022-12-01T08:41:01.258Z,1021.42
2022-12-01T08:42:01.490Z,1021.48
2022-12-01T08:43:01.727Z,1021.29
2022-12-01T08:44:08.838Z,1021.42
2022-12-01T08:45:02.939Z,1021.45
2022-12-01T08:46:02.067Z,1021.45
2022-12-01T08:47:02.130Z,1021.43
2022-12-01T08:48:02.290Z,1021.45
2022-12-01T08:49:02.460Z,1021.42
2022-12-01T08:50:02.627Z,1021.42
2022-12-01T08:51:02.798Z,1021.41
2022-12-01T08:52:02.966Z,1021.47
2022-12-01T08:53:03.123Z,1021.54
2022-12-01T08:54:03.327Z,1021.43
2022-12-01T08:55:03.427Z,1021.40
2022-12-01T08:56:03.567Z,1021.41
2022-12-01T08:57:03.737Z,1021.47
2022-12-01T08:58:03.877Z,1021.46
2022-12-01T08:59:04.044Z,1021.52
2022-12-01T09:00:04.209Z,1021.41
2022-12-01T09:01:04.364Z,1021.40
2022-12-01T09:02:07.098Z,1021.43
2022-12-01T09:03:04.641Z,1021.53
2022-12-01T09:04:04.798Z,1021.44
2022-12-01T09:05:04.923Z,1021.50
2022-12-01T09:06:05.076Z,1021.48
2022-12-01T09:07:05.245Z,1021.40
2022-12-01T09:08:05.480Z,1021.43
2022-12-01T09:09:05.584Z,1021.43
2022-12-01T09:10:05.660Z,1021.43
2022-12-01T09:11:05.826Z,1021.46
2022-12-01T09:12:05.985Z,1021.49
2022-12-01T09:13:06.124Z,1021.48
2022-12-01T09:14:06.290Z,1021.47
2022-12-01T09:15:06.434Z,1021.43
2022-12-01T09:16:06.781Z,1021.46
2022-12-01T09:17:06.746Z,1021.45
2022-12-01T09:18:06.877Z,1021.44
2022-12-01T09:19:07.027Z,1021.44
2022-12-01T09:20:07.153Z,1021.49
2022-12-01T09:21:07.296Z,1021.49
2022-12-01T09:22:07.464Z,1021.46
2022-12-01T09:23:07.566Z,1021.48
2022-12-01T09:24:07.870Z,1021.50
2022-12-01T09:25:07.858Z,1021.51
2022-12-01T09:26:13.199Z,1021.52
2022-12-01T09:27:09.166Z,1021.52
2022-12-01T09:28:08.307Z,1021.50
2022-12-01T09:29:08.503Z,1021.48
2022-12-01T09:30:08.574Z,1021.51
2022-12-01T09:31:08.861Z,1021.53
2022-12-01T09:32:08.943Z,1021.54
2022-12-01T09:33:09.130Z,1021.54
2022-12-01T09:34:09.201Z,1021.56
2022-12-01T09:35:09.379Z,1021.54
2022-12-01T09:36:09.554Z,1021.53
2022-12-01T09:37:09.631Z,1021.53
2022-12-01T09:38:09.803Z,1021.51
2022-12-01T09:39:09.903Z,1021.55
2022-12-01T09:40:10.101Z,1021.55
2022-12-01T09:41:10.952Z,1021.51
2022-12-01T09:42:10.337Z,1021.57
2022-12-01T09:43:10.501Z,1021.52
2022-12-01T09:44:10.660Z,1021.49
2022-12-01T09:45:10.835Z,1021.52
2022-12-01T09:46:11.059Z,1021.50
2022-12-01T09:47:11.193Z,1021.55
2022-12-01T09:48:11.241Z,1021.54
2022-12-01T09:49:11.319Z,1021.56
2022-12-01T09:50:11.478Z,1021.57
2022-12-01T09:51:11.612Z,1021.55
2022-12-01T09:52:11.741Z,1021.53
2022-12-01T09:53:11.959Z,1021.59
2022-12-01T09:54:12.060Z,1021.55
2022-12-01T09:55:12.201Z,1021.51
2022-12-01T09:56:13.216Z,1021.50
2022-12-01T09:57:12.512Z,1021.51
2022-12-01T09:58:12.560Z,1021.51
2022-12-01T09:59:12.710Z,1021.47
2022-12-01T10:00:12.890Z,1021.55
2022-12-01T10:01:13.104Z,1021.53
2022-12-01T10:03:11.826Z,1021.56
2022-12-01T10:04:11.966Z,1021.52
2022-12-01T10:05:12.115Z,1021.41
2022-12-01T10:06:27.402Z,1021.48
2022-12-01T10:07:13.374Z,1021.46
2022-12-01T10:08:12.516Z,1021.45
2022-12-01T10:09:12.645Z,1021.46
2022-12-01T10:10:12.773Z,1021.40
2022-12-01T10:11:12.894Z,1021.42
2022-12-01T10:12:13.024Z,1021.44
2022-12-01T10:13:13.151Z,1021.45
2022-12-01T10:14:19.259Z,1021.47
2022-12-01T10:15:14.392Z,1021.45
2022-12-01T10:16:13.584Z,1021.42
2022-12-01T10:17:13.614Z,1021.38
2022-12-01T10:18:13.734Z,1021.40
2022-12-01T10:19:14.015Z,1021.36
2022-12-01T10:20:14.032Z,1021.42
2022-12-01T10:21:14.151Z,1021.36
2022-12-01T10:22:14.295Z,1021.40
2022-12-01T10:23:14.383Z,1021.35
2022-12-01T10:24:14.524Z,1021.42
2022-12-01T10:25:14.631Z,1021.37
2022-12-01T10:26:14.804Z,1021.34
2022-12-01T10:27:14.945Z,1021.30
2022-12-01T10:28:15.105Z,1021.31
2022-12-01T10:29:15.221Z,1021.25
2022-12-01T10:30:15.365Z,1021.29
2022-12-01T10:31:15.572Z,1021.32
2022-12-01T10:32:15.653Z,1021.23
2022-12-01T10:33:15.771Z,1021.24
2022-12-01T10:34:15.900Z,1021.23
2022-12-01T10:35:16.070Z,1021.20
2022-12-01T10:36:16.304Z,1021.20
2022-12-01T10:37:16.399Z,1021.22
2022-12-01T10:38:16.496Z,1021.23
2022-12-01T10:39:16.622Z,1021.19
2022-12-01T10:40:16.773Z,1021.21
2022-12-01T10:41:16.903Z,1021.22
2022-12-01T10:42:17.046Z,1021.22
2022-12-01T10:43:17.163Z,1021.18
2022-12-01T10:44:17.300Z,1021.26
2022-12-01T10:45:17.420Z,1021.20
2022-12-01T10:46:17.611Z,1021.22
2022-12-01T10:47:17.710Z,1021.18
2022-12-01T10:48:17.830Z,1021.23
2022-12-01T10:49:17.952Z,1021.18
2022-12-01T10:50:18.120Z,1021.24
2022-12-01T10:51:18.249Z,1021.14
2022-12-01T10:52:18.371Z,1021.19
2022-12-01T10:53:18.492Z,1021.21
2022-12-01T10:54:18.619Z,1021.16
2022-12-01T10:55:18.738Z,1021.22
2022-12-01T10:56:18.887Z,1021.23
2022-12-01T10:57:19.051Z,1021.20
2022-12-01T10:58:19.192Z,1021.27
2022-12-01T10:59:19.350Z,1021.23
2022-12-01T11:00:51.409Z,1021.26
2022-12-01T11:01:20.717Z,1021.27
2022-12-01T11:02:19.951Z,1021.27
2022-12-01T11:03:21.796Z,1021.26
2022-12-01T11:04:20.060Z,1021.26
2022-12-01T11:05:20.188Z,1021.26
2022-12-01T11:06:20.322Z,1021.22
2022-12-01T11:07:20.532Z,1021.26
2022-12-01T11:08:20.607Z,1021.24
2022-12-01T11:09:25.982Z,1021.20
2022-12-01T11:10:21.934Z,1021.28
2022-12-01T11:11:20.970Z,1021.23
2022-12-01T11:12:21.116Z,1021.22
2022-12-01T11:13:21.216Z,1021.25
2022-12-01T11:14:21.357Z,1021.20
2022-12-01T11:15:21.499Z,1021.21
2022-12-01T11:16:21.616Z,1021.18
2022-12-01T11:17:21.726Z,1021.23
2022-12-01T11:18:21.829Z,1021.23
2022-12-01T11:19:27.338Z,1021.21
2022-12-01T11:20:23.345Z,1021.20
2022-12-01T11:21:22.314Z,1021.27
2022-12-01T11:22:22.517Z,1021.18
2022-12-01T11:23:22.536Z,1021.19
2022-12-01T11:24:22.657Z,1021.19
2022-12-01T11:25:22.787Z,1021.22
2022-12-01T11:26:22.946Z,1021.20
2022-12-01T11:27:23.130Z,1021.16
2022-12-01T11:28:23.166Z,1021.12
2022-12-01T11:29:23.290Z,1021.08
2022-12-01T11:30:23.425Z,1021.09
2022-12-01T11:31:24.721Z,1021.11
2022-12-01T11:32:23.770Z,1021.11
2022-12-01T11:33:23.826Z,1021.09
2022-12-01T11:34:23.957Z,1021.09
2022-12-01T11:35:24.074Z,1021.04
2022-12-01T11:36:24.206Z,1021.10
2022-12-01T11:37:24.345Z,1021.10
2022-12-01T11:38:31.564Z,1021.15
2022-12-01T11:39:25.632Z,1021.14
2022-12-01T11:40:24.770Z,1021.04
2022-12-01T11:41:24.913Z,1021.11
2022-12-01T11:42:25.034Z,1021.13
2022-12-01T11:43:25.191Z,1021.11
2022-12-01T11:45:26.536Z,1021.11
2022-12-01T11:46:25.624Z,1021.12
2022-12-01T11:47:25.720Z,1021.14
2022-12-01T11:48:25.925Z,1021.21
2022-12-01T11:49:26.423Z,1021.16
2022-12-01T11:50:26.155Z,1021.13
2022-12-01T11:51:26.244Z,1021.18
2022-12-01T11:52:26.376Z,1021.14
2022-12-01T11:53:26.502Z,1021.13
2022-12-01T11:54:26.644Z,1021.13
2022-12-01T11:55:27.892Z,1021.11
2022-12-01T11:56:26.892Z,1021.12
2022-12-01T11:57:35.162Z,1021.11
2022-12-01T11:58:28.240Z,1021.14
2022-12-01T11:59:27.339Z,1021.09
2022-12-01T12:00:27.483Z,1021.09
2022-12-01T12:01:27.576Z,1021.08
2022-12-01T12:02:27.798Z,1021.08
2022-12-01T12:03:27.843Z,1021.10
2022-12-01T12:04:27.935Z,1021.08
2022-12-01T12:05:28.074Z,1021.02
2022-12-01T12:06:43.462Z,1021.05
2022-12-01T12:07:29.413Z,1021.02
2022-12-01T12:08:28.522Z,1021.10
2022-12-01T12:09:28.662Z,1021.07